sensor_id;sensor_type;location;lat;lon;timestamp;temperature;humidity
23507;DHT22;11930;53.076;18.250;2024-02-16T00:01:37;9.70;99.90
23507;DHT22;11930;53.076;18.250;2024-02-16T00:04:03;9.70;99.90
23507;DHT22;11930;53.076;18.250;2024-02-16T00:06:30;9.70;99.90
23507;DHT22;11930;53.076;18.250;2024-02-16T00:08:57;9.70;99.90
23507;DHT22;11930;53.076;18.250;2024-02-16T00:14:48;9.70;99.90
23507;DHT22;11930;53.076;18.250;2024-02-16T00:17:14;9.60;99.90
23507;DHT22;11930;53.076;18.250;2024-02-16T00:19:40;9.80;99.90
23507;DHT22;11930;53.076;18.250;2024-02-16T00:22:07;9.60;99.90
23507;DHT22;11930;53.076;18.250;2024-02-16T00:24:34;9.60;99.90
23507;DHT22;11930;53.076;18.250;2024-02-16T00:27:00;9.60;99.90
23507;DHT22;11930;53.076;18.250;2024-02-16T00:29:27;9.60;99.90
23507;DHT22;11930;53.076;18.250;2024-02-16T00:31:53;9.60;99.90
23507;DHT22;11930;53.076;18.250;2024-02-16T00:34:19;9.60;99.90
23507;DHT22;11930;53.076;18.250;2024-02-16T00:36:46;9.60;99.90
23507;DHT22;11930;53.076;18.250;2024-02-16T00:39:12;9.60;99.90
23507;DHT22;11930;53.076;18.250;2024-02-16T00:41:38;9.60;99.90
23507;DHT22;11930;53.076;18.250;2024-02-16T00:44:04;9.60;99.90
23507;DHT22;11930;53.076;18.250;2024-02-16T00:46:30;9.60;99.90
23507;DHT22;11930;53.076;18.250;2024-02-16T00:48:57;9.60;99.90
23507;DHT22;11930;53.076;18.250;2024-02-16T00:51:24;9.60;99.90
23507;DHT22;11930;53.076;18.250;2024-02-16T00:53:51;9.60;99.90
23507;DHT22;11930;53.076;18.250;2024-02-16T00:56:18;9.60;99.90
23507;DHT22;11930;53.076;18.250;2024-02-16T00:58:44;9.50;99.90
23507;DHT22;11930;53.076;18.250;2024-02-16T01:01:11;9.60;99.90
23507;DHT22;11930;53.076;18.250;2024-02-16T01:03:38;9.60;99.90
23507;DHT22;11930;53.076;18.250;2024-02-16T01:06:06;9.60;99.90
23507;DHT22;11930;53.076;18.250;2024-02-16T01:08:32;9.60;99.90
23507;DHT22;11930;53.076;18.250;2024-02-16T01:10:59;9.50;99.90
23507;DHT22;11930;53.076;18.250;2024-02-16T01:13:25;9.40;99.90
23507;DHT22;11930;53.076;18.250;2024-02-16T01:15:51;9.50;99.90
23507;DHT22;11930;53.076;18.250;2024-02-16T01:18:18;9.60;99.90
23507;DHT22;11930;53.076;18.250;2024-02-16T01:20:44;9.80;99.90
23507;DHT22;11930;53.076;18.250;2024-02-16T01:23:10;9.70;99.90
23507;DHT22;11930;53.076;18.250;2024-02-16T01:25:36;9.50;99.90
23507;DHT22;11930;53.076;18.250;2024-02-16T01:28:02;9.50;99.90
23507;DHT22;11930;53.076;18.250;2024-02-16T01:30:29;9.50;99.90
23507;DHT22;11930;53.076;18.250;2024-02-16T01:32:55;9.50;99.90
23507;DHT22;11930;53.076;18.250;2024-02-16T01:35:21;9.50;99.90
23507;DHT22;11930;53.076;18.250;2024-02-16T01:37:48;9.60;99.90
23507;DHT22;11930;53.076;18.250;2024-02-16T01:40:14;9.50;99.90
23507;DHT22;11930;53.076;18.250;2024-02-16T01:42:43;9.60;99.90
23507;DHT22;11930;53.076;18.250;2024-02-16T01:45:13;9.50;99.90
23507;DHT22;11930;53.076;18.250;2024-02-16T01:47:41;9.60;99.90
23507;DHT22;11930;53.076;18.250;2024-02-16T01:50:09;9.60;99.90
23507;DHT22;11930;53.076;18.250;2024-02-16T01:52:36;9.60;99.90
23507;DHT22;11930;53.076;18.250;2024-02-16T01:55:04;9.50;99.90
23507;DHT22;11930;53.076;18.250;2024-02-16T01:57:31;9.60;99.90
23507;DHT22;11930;53.076;18.250;2024-02-16T01:59:58;9.60;99.90
23507;DHT22;11930;53.076;18.250;2024-02-16T02:02:26;9.60;99.90
23507;DHT22;11930;53.076;18.250;2024-02-16T02:04:52;9.60;99.90
23507;DHT22;11930;53.076;18.250;2024-02-16T02:07:18;9.60;99.90
23507;DHT22;11930;53.076;18.250;2024-02-16T02:09:45;9.60;99.90
23507;DHT22;11930;53.076;18.250;2024-02-16T02:12:11;9.60;99.90
23507;DHT22;11930;53.076;18.250;2024-02-16T02:14:37;9.60;99.90
23507;DHT22;11930;53.076;18.250;2024-02-16T02:17:03;9.60;99.90
23507;DHT22;11930;53.076;18.250;2024-02-16T02:19:30;9.60;99.90
23507;DHT22;11930;53.076;18.250;2024-02-16T02:21:56;9.60;99.90
23507;DHT22;11930;53.076;18.250;2024-02-16T02:24:23;9.60;99.90
23507;DHT22;11930;53.076;18.250;2024-02-16T02:26:49;9.60;99.90
23507;DHT22;11930;53.076;18.250;2024-02-16T02:29:15;9.60;99.90
23507;DHT22;11930;53.076;18.250;2024-02-16T02:31:41;9.60;99.90
23507;DHT22;11930;53.076;18.250;2024-02-16T02:34:07;9.60;99.90
23507;DHT22;11930;53.076;18.250;2024-02-16T02:36:34;9.60;99.90
23507;DHT22;11930;53.076;18.250;2024-02-16T02:39:00;9.60;99.90
23507;DHT22;11930;53.076;18.250;2024-02-16T02:41:27;9.60;99.90
23507;DHT22;11930;53.076;18.250;2024-02-16T02:43:53;9.60;99.90
23507;DHT22;11930;53.076;18.250;2024-02-16T02:46:19;9.60;99.90
23507;DHT22;11930;53.076;18.250;2024-02-16T02:48:46;9.50;99.90
23507;DHT22;11930;53.076;18.250;2024-02-16T02:51:12;9.50;99.90
23507;DHT22;11930;53.076;18.250;2024-02-16T02:53:38;9.50;99.90
23507;DHT22;11930;53.076;18.250;2024-02-16T02:56:05;9.50;99.90
23507;DHT22;11930;53.076;18.250;2024-02-16T02:58:31;9.50;99.90
23507;DHT22;11930;53.076;18.250;2024-02-16T03:00:57;9.50;99.90
23507;DHT22;11930;53.076;18.250;2024-02-16T03:03:23;9.50;99.90
23507;DHT22;11930;53.076;18.250;2024-02-16T03:05:50;9.50;99.90
23507;DHT22;11930;53.076;18.250;2024-02-16T03:08:16;9.40;99.90
23507;DHT22;11930;53.076;18.250;2024-02-16T03:10:42;9.40;99.90
23507;DHT22;11930;53.076;18.250;2024-02-16T03:13:10;9.40;99.90
23507;DHT22;11930;53.076;18.250;2024-02-16T03:15:38;9.40;99.90
23507;DHT22;11930;53.076;18.250;2024-02-16T03:18:05;9.40;99.90
23507;DHT22;11930;53.076;18.250;2024-02-16T03:20:35;9.40;99.90
23507;DHT22;11930;53.076;18.250;2024-02-16T03:23:02;9.40;99.90
23507;DHT22;11930;53.076;18.250;2024-02-16T03:25:29;9.30;99.90
23507;DHT22;11930;53.076;18.250;2024-02-16T03:27:55;9.30;99.90
23507;DHT22;11930;53.076;18.250;2024-02-16T03:30:22;9.30;99.90
23507;DHT22;11930;53.076;18.250;2024-02-16T03:32:51;9.30;99.90
23507;DHT22;11930;53.076;18.250;2024-02-16T03:35:18;9.30;99.90
23507;DHT22;11930;53.076;18.250;2024-02-16T03:37:44;9.30;99.90
23507;DHT22;11930;53.076;18.250;2024-02-16T03:40:11;9.30;99.90
23507;DHT22;11930;53.076;18.250;2024-02-16T03:42:39;9.30;99.90
23507;DHT22;11930;53.076;18.250;2024-02-16T03:45:07;9.30;99.90
23507;DHT22;11930;53.076;18.250;2024-02-16T03:47:33;9.30;99.90
23507;DHT22;11930;53.076;18.250;2024-02-16T03:49:59;9.30;99.90
23507;DHT22;11930;53.076;18.250;2024-02-16T03:52:26;9.30;99.90
23507;DHT22;11930;53.076;18.250;2024-02-16T03:54:52;9.20;99.90
23507;DHT22;11930;53.076;18.250;2024-02-16T03:57:18;9.20;99.90
23507;DHT22;11930;53.076;18.250;2024-02-16T03:59:44;9.30;99.90
23507;DHT22;11930;53.076;18.250;2024-02-16T04:02:11;9.20;99.90
23507;DHT22;11930;53.076;18.250;2024-02-16T04:04:39;9.20;99.90
23507;DHT22;11930;53.076;18.250;2024-02-16T04:07:05;9.20;99.90
23507;DHT22;11930;53.076;18.250;2024-02-16T04:09:34;9.20;99.90
23507;DHT22;11930;53.076;18.250;2024-02-16T04:12:01;9.20;99.90
23507;DHT22;11930;53.076;18.250;2024-02-16T04:14:28;9.20;99.90
23507;DHT22;11930;53.076;18.250;2024-02-16T04:16:55;9.20;99.90
23507;DHT22;11930;53.076;18.250;2024-02-16T04:19:27;9.10;99.90
23507;DHT22;11930;53.076;18.250;2024-02-16T04:21:54;9.10;99.90
23507;DHT22;11930;53.076;18.250;2024-02-16T04:24:20;9.20;99.90
23507;DHT22;11930;53.076;18.250;2024-02-16T04:26:47;9.10;99.90
23507;DHT22;11930;53.076;18.250;2024-02-16T04:29:13;9.10;99.90
23507;DHT22;11930;53.076;18.250;2024-02-16T04:31:40;9.10;99.90
23507;DHT22;11930;53.076;18.250;2024-02-16T04:34:10;9.10;99.90
23507;DHT22;11930;53.076;18.250;2024-02-16T04:36:36;9.10;99.90
23507;DHT22;11930;53.076;18.250;2024-02-16T04:39:02;9.10;99.90
23507;DHT22;11930;53.076;18.250;2024-02-16T04:41:29;9.10;99.90
23507;DHT22;11930;53.076;18.250;2024-02-16T04:43:55;9.00;99.90
23507;DHT22;11930;53.076;18.250;2024-02-16T04:46:21;9.00;99.90
23507;DHT22;11930;53.076;18.250;2024-02-16T04:48:48;9.00;99.90
23507;DHT22;11930;53.076;18.250;2024-02-16T04:51:14;9.00;99.90
23507;DHT22;11930;53.076;18.250;2024-02-16T04:53:40;9.00;99.90
23507;DHT22;11930;53.076;18.250;2024-02-16T04:56:06;9.00;99.90
23507;DHT22;11930;53.076;18.250;2024-02-16T04:58:32;9.00;99.90
23507;DHT22;11930;53.076;18.250;2024-02-16T05:00:59;8.90;99.90
23507;DHT22;11930;53.076;18.250;2024-02-16T05:03:26;8.90;99.90
23507;DHT22;11930;53.076;18.250;2024-02-16T05:05:53;8.90;99.90
23507;DHT22;11930;53.076;18.250;2024-02-16T05:08:22;8.90;99.90
23507;DHT22;11930;53.076;18.250;2024-02-16T05:10:48;8.90;99.90
23507;DHT22;11930;53.076;18.250;2024-02-16T05:13:14;8.90;99.90
23507;DHT22;11930;53.076;18.250;2024-02-16T05:15:40;8.80;99.90
23507;DHT22;11930;53.076;18.250;2024-02-16T05:18:07;8.80;99.90
23507;DHT22;11930;53.076;18.250;2024-02-16T05:20:33;8.80;99.90
23507;DHT22;11930;53.076;18.250;2024-02-16T05:22:59;8.80;99.90
23507;DHT22;11930;53.076;18.250;2024-02-16T05:25:25;8.80;99.90
23507;DHT22;11930;53.076;18.250;2024-02-16T05:27:51;8.80;99.90
23507;DHT22;11930;53.076;18.250;2024-02-16T05:30:18;8.80;99.90
23507;DHT22;11930;53.076;18.250;2024-02-16T05:32:44;8.80;99.90
23507;DHT22;11930;53.076;18.250;2024-02-16T05:35:11;8.80;99.90
23507;DHT22;11930;53.076;18.250;2024-02-16T05:37:41;8.70;99.90
23507;DHT22;11930;53.076;18.250;2024-02-16T05:40:13;8.70;99.90
23507;DHT22;11930;53.076;18.250;2024-02-16T05:42:48;8.70;99.90
23507;DHT22;11930;53.076;18.250;2024-02-16T05:45:14;8.70;99.90
23507;DHT22;11930;53.076;18.250;2024-02-16T05:47:46;8.70;99.90
23507;DHT22;11930;53.076;18.250;2024-02-16T05:50:14;8.70;99.90
23507;DHT22;11930;53.076;18.250;2024-02-16T05:52:41;8.70;99.90
23507;DHT22;11930;53.076;18.250;2024-02-16T05:55:10;8.70;99.90
23507;DHT22;11930;53.076;18.250;2024-02-16T05:57:37;8.70;99.90
23507;DHT22;11930;53.076;18.250;2024-02-16T06:00:05;8.70;99.90
23507;DHT22;11930;53.076;18.250;2024-02-16T06:02:32;8.60;99.90
23507;DHT22;11930;53.076;18.250;2024-02-16T06:05:02;8.70;99.90
23507;DHT22;11930;53.076;18.250;2024-02-16T06:07:29;8.70;99.90
23507;DHT22;11930;53.076;18.250;2024-02-16T06:09:56;8.60;99.90
23507;DHT22;11930;53.076;18.250;2024-02-16T06:12:23;8.60;99.90
23507;DHT22;11930;53.076;18.250;2024-02-16T06:14:49;8.60;99.90
23507;DHT22;11930;53.076;18.250;2024-02-16T06:17:16;8.60;99.90
23507;DHT22;11930;53.076;18.250;2024-02-16T06:19:43;8.60;99.90
23507;DHT22;11930;53.076;18.250;2024-02-16T06:22:09;8.60;99.90
23507;DHT22;11930;53.076;18.250;2024-02-16T06:24:36;8.60;99.90
23507;DHT22;11930;53.076;18.250;2024-02-16T06:27:03;8.60;99.90
23507;DHT22;11930;53.076;18.250;2024-02-16T06:29:30;8.60;99.90
23507;DHT22;11930;53.076;18.250;2024-02-16T06:31:56;8.60;99.90
23507;DHT22;11930;53.076;18.250;2024-02-16T06:34:23;8.60;99.90
23507;DHT22;11930;53.076;18.250;2024-02-16T06:36:49;8.60;99.90
23507;DHT22;11930;53.076;18.250;2024-02-16T06:39:16;8.60;99.90
23507;DHT22;11930;53.076;18.250;2024-02-16T06:41:43;8.60;99.90
23507;DHT22;11930;53.076;18.250;2024-02-16T06:44:10;8.60;99.90
23507;DHT22;11930;53.076;18.250;2024-02-16T06:46:36;8.60;99.90
23507;DHT22;11930;53.076;18.250;2024-02-16T06:49:02;8.60;99.90
23507;DHT22;11930;53.076;18.250;2024-02-16T06:51:29;8.60;99.90
23507;DHT22;11930;53.076;18.250;2024-02-16T06:53:56;8.60;99.90
23507;DHT22;11930;53.076;18.250;2024-02-16T06:56:22;8.70;99.90
23507;DHT22;11930;53.076;18.250;2024-02-16T06:58:49;8.80;99.90
23507;DHT22;11930;53.076;18.250;2024-02-16T07:01:16;8.70;99.90
23507;DHT22;11930;53.076;18.250;2024-02-16T07:03:45;8.80;99.90
23507;DHT22;11930;53.076;18.250;2024-02-16T07:06:12;8.90;99.90
23507;DHT22;11930;53.076;18.250;2024-02-16T07:08:40;8.90;99.90
23507;DHT22;11930;53.076;18.250;2024-02-16T07:11:07;8.90;99.90
23507;DHT22;11930;53.076;18.250;2024-02-16T07:13:34;8.90;99.90
23507;DHT22;11930;53.076;18.250;2024-02-16T07:16:00;8.90;99.90
23507;DHT22;11930;53.076;18.250;2024-02-16T07:18:26;8.90;99.90
23507;DHT22;11930;53.076;18.250;2024-02-16T07:20:52;8.90;99.90
23507;DHT22;11930;53.076;18.250;2024-02-16T07:23:19;8.90;99.90
23507;DHT22;11930;53.076;18.250;2024-02-16T07:25:45;8.80;99.90
23507;DHT22;11930;53.076;18.250;2024-02-16T07:28:12;8.90;99.90
23507;DHT22;11930;53.076;18.250;2024-02-16T07:30:38;8.80;99.90
23507;DHT22;11930;53.076;18.250;2024-02-16T07:33:05;8.80;99.90
23507;DHT22;11930;53.076;18.250;2024-02-16T07:35:35;8.80;99.90
23507;DHT22;11930;53.076;18.250;2024-02-16T07:38:02;8.80;99.90
23507;DHT22;11930;53.076;18.250;2024-02-16T07:40:29;8.80;99.90
23507;DHT22;11930;53.076;18.250;2024-02-16T07:42:55;8.80;99.90
23507;DHT22;11930;53.076;18.250;2024-02-16T07:45:21;8.70;99.90
23507;DHT22;11930;53.076;18.250;2024-02-16T07:47:48;8.70;99.90
23507;DHT22;11930;53.076;18.250;2024-02-16T07:50:18;8.70;99.90
23507;DHT22;11930;53.076;18.250;2024-02-16T07:52:45;8.70;99.90
23507;DHT22;11930;53.076;18.250;2024-02-16T07:55:11;8.70;99.90
23507;DHT22;11930;53.076;18.250;2024-02-16T07:57:37;8.80;99.90
23507;DHT22;11930;53.076;18.250;2024-02-16T08:00:05;8.80;99.90
23507;DHT22;11930;53.076;18.250;2024-02-16T08:02:32;8.90;99.90
23507;DHT22;11930;53.076;18.250;2024-02-16T08:04:59;9.10;99.90
23507;DHT22;11930;53.076;18.250;2024-02-16T08:07:25;9.50;99.90
23507;DHT22;11930;53.076;18.250;2024-02-16T08:09:51;9.80;99.90
23507;DHT22;11930;53.076;18.250;2024-02-16T08:12:17;10.20;99.90
23507;DHT22;11930;53.076;18.250;2024-02-16T08:14:44;10.30;99.90
23507;DHT22;11930;53.076;18.250;2024-02-16T08:19:38;10.60;99.90
23507;DHT22;11930;53.076;18.250;2024-02-16T08:22:08;10.70;99.90
23507;DHT22;11930;53.076;18.250;2024-02-16T08:24:35;10.80;99.90
23507;DHT22;11930;53.076;18.250;2024-02-16T08:27:01;10.90;99.90
23507;DHT22;11930;53.076;18.250;2024-02-16T08:29:28;10.90;99.90
23507;DHT22;11930;53.076;18.250;2024-02-16T08:31:55;10.90;99.90
23507;DHT22;11930;53.076;18.250;2024-02-16T08:34:21;11.00;99.90
23507;DHT22;11930;53.076;18.250;2024-02-16T08:36:48;10.90;99.90
23507;DHT22;11930;53.076;18.250;2024-02-16T08:39:16;11.00;99.90
23507;DHT22;11930;53.076;18.250;2024-02-16T08:41:43;11.00;99.90
23507;DHT22;11930;53.076;18.250;2024-02-16T08:44:15;11.20;99.90
23507;DHT22;11930;53.076;18.250;2024-02-16T08:46:41;11.40;99.90
23507;DHT22;11930;53.076;18.250;2024-02-16T08:49:07;11.70;99.90
23507;DHT22;11930;53.076;18.250;2024-02-16T08:51:35;11.90;99.90
23507;DHT22;11930;53.076;18.250;2024-02-16T08:54:01;12.20;99.90
23507;DHT22;11930;53.076;18.250;2024-02-16T08:56:28;12.50;99.90
23507;DHT22;11930;53.076;18.250;2024-02-16T08:58:54;12.90;99.90
23507;DHT22;11930;53.076;18.250;2024-02-16T09:01:34;13.20;99.90
23507;DHT22;11930;53.076;18.250;2024-02-16T09:04:00;13.60;99.90
23507;DHT22;11930;53.076;18.250;2024-02-16T09:06:27;13.80;99.90
23507;DHT22;11930;53.076;18.250;2024-02-16T09:08:54;13.90;99.90
23507;DHT22;11930;53.076;18.250;2024-02-16T09:11:21;13.90;99.90
23507;DHT22;11930;53.076;18.250;2024-02-16T09:13:47;13.80;99.90
23507;DHT22;11930;53.076;18.250;2024-02-16T09:16:13;13.60;99.90
23507;DHT22;11930;53.076;18.250;2024-02-16T09:18:39;13.60;99.90
23507;DHT22;11930;53.076;18.250;2024-02-16T09:21:06;13.60;99.90
23507;DHT22;11930;53.076;18.250;2024-02-16T09:23:34;13.70;99.90
23507;DHT22;11930;53.076;18.250;2024-02-16T09:26:00;13.90;99.90
23507;DHT22;11930;53.076;18.250;2024-02-16T09:28:30;14.10;99.90
23507;DHT22;11930;53.076;18.250;2024-02-16T09:30:57;14.20;99.90
23507;DHT22;11930;53.076;18.250;2024-02-16T09:33:24;14.30;99.90
23507;DHT22;11930;53.076;18.250;2024-02-16T09:35:50;14.30;99.90
23507;DHT22;11930;53.076;18.250;2024-02-16T09:38:17;14.30;99.90
23507;DHT22;11930;53.076;18.250;2024-02-16T09:40:44;14.30;99.90
23507;DHT22;11930;53.076;18.250;2024-02-16T09:43:20;14.20;99.90
23507;DHT22;11930;53.076;18.250;2024-02-16T09:45:51;14.10;99.90
23507;DHT22;11930;53.076;18.250;2024-02-16T09:48:17;14.00;99.90
23507;DHT22;11930;53.076;18.250;2024-02-16T09:50:45;14.10;99.90
23507;DHT22;11930;53.076;18.250;2024-02-16T09:53:12;14.10;99.90
23507;DHT22;11930;53.076;18.250;2024-02-16T09:55:39;14.10;99.90
23507;DHT22;11930;53.076;18.250;2024-02-16T09:58:05;14.20;99.90
23507;DHT22;11930;53.076;18.250;2024-02-16T10:00:32;14.20;99.90
23507;DHT22;11930;53.076;18.250;2024-02-16T10:02:58;14.30;99.90
23507;DHT22;11930;53.076;18.250;2024-02-16T10:05:24;14.30;99.90
23507;DHT22;11930;53.076;18.250;2024-02-16T10:07:51;14.40;99.90
23507;DHT22;11930;53.076;18.250;2024-02-16T10:10:28;14.50;99.90
23507;DHT22;11930;53.076;18.250;2024-02-16T10:13:03;14.50;99.90
23507;DHT22;11930;53.076;18.250;2024-02-16T10:15:31;14.60;99.90
23507;DHT22;11930;53.076;18.250;2024-02-16T10:18:04;14.80;99.90
23507;DHT22;11930;53.076;18.250;2024-02-16T10:20:35;14.80;99.90
23507;DHT22;11930;53.076;18.250;2024-02-16T10:23:09;14.70;99.90
23507;DHT22;11930;53.076;18.250;2024-02-16T10:25:37;14.70;99.90
23507;DHT22;11930;53.076;18.250;2024-02-16T10:28:05;14.60;99.90
23507;DHT22;11930;53.076;18.250;2024-02-16T10:30:37;14.50;99.90
23507;DHT22;11930;53.076;18.250;2024-02-16T10:33:05;14.20;99.90
23507;DHT22;11930;53.076;18.250;2024-02-16T10:35:36;14.20;99.90
23507;DHT22;11930;53.076;18.250;2024-02-16T10:38:04;14.10;99.90
23507;DHT22;11930;53.076;18.250;2024-02-16T10:40:41;14.00;99.90
23507;DHT22;11930;53.076;18.250;2024-02-16T10:43:08;14.00;99.90
23507;DHT22;11930;53.076;18.250;2024-02-16T10:45:37;14.00;99.90
23507;DHT22;11930;53.076;18.250;2024-02-16T10:48:05;14.00;99.90
23507;DHT22;11930;53.076;18.250;2024-02-16T10:50:35;14.00;99.90
23507;DHT22;11930;53.076;18.250;2024-02-16T10:55:38;13.90;99.90
23507;DHT22;11930;53.076;18.250;2024-02-16T10:58:07;13.80;99.90
23507;DHT22;11930;53.076;18.250;2024-02-16T11:00:33;13.70;99.90
23507;DHT22;11930;53.076;18.250;2024-02-16T11:03:02;13.60;99.90
23507;DHT22;11930;53.076;18.250;2024-02-16T11:05:33;13.50;99.90
23507;DHT22;11930;53.076;18.250;2024-02-16T11:08:03;13.60;99.90
23507;DHT22;11930;53.076;18.250;2024-02-16T11:10:30;13.60;99.90
23507;DHT22;11930;53.076;18.250;2024-02-16T11:13:03;13.70;99.90
23507;DHT22;11930;53.076;18.250;2024-02-16T11:15:34;13.80;99.90
23507;DHT22;11930;53.076;18.250;2024-02-16T11:18:03;13.90;99.90
23507;DHT22;11930;53.076;18.250;2024-02-16T11:20:37;13.80;99.90
23507;DHT22;11930;53.076;18.250;2024-02-16T11:23:08;13.80;99.90
23507;DHT22;11930;53.076;18.250;2024-02-16T11:25:36;13.70;99.90
23507;DHT22;11930;53.076;18.250;2024-02-16T11:28:02;13.80;99.90
23507;DHT22;11930;53.076;18.250;2024-02-16T11:30:35;13.70;99.90
23507;DHT22;11930;53.076;18.250;2024-02-16T11:33:01;13.70;99.90
23507;DHT22;11930;53.076;18.250;2024-02-16T11:35:28;13.70;99.90
23507;DHT22;11930;53.076;18.250;2024-02-16T11:37:56;13.60;99.90
23507;DHT22;11930;53.076;18.250;2024-02-16T11:40:22;13.60;99.90
23507;DHT22;11930;53.076;18.250;2024-02-16T11:42:48;13.50;99.90
23507;DHT22;11930;53.076;18.250;2024-02-16T11:45:15;13.50;99.90
23507;DHT22;11930;53.076;18.250;2024-02-16T11:47:41;13.50;99.90
23507;DHT22;11930;53.076;18.250;2024-02-16T11:50:10;13.50;99.90
23507;DHT22;11930;53.076;18.250;2024-02-16T11:52:40;13.40;99.90
23507;DHT22;11930;53.076;18.250;2024-02-16T11:55:13;13.40;99.90
23507;DHT22;11930;53.076;18.250;2024-02-16T11:57:41;13.40;99.90
23507;DHT22;11930;53.076;18.250;2024-02-16T12:00:08;13.40;99.90
23507;DHT22;11930;53.076;18.250;2024-02-16T12:02:36;13.50;99.90
23507;DHT22;11930;53.076;18.250;2024-02-16T12:05:03;13.40;99.90
23507;DHT22;11930;53.076;18.250;2024-02-16T12:07:31;13.40;99.90
23507;DHT22;11930;53.076;18.250;2024-02-16T12:10:00;13.40;99.90
23507;DHT22;11930;53.076;18.250;2024-02-16T12:12:27;13.40;99.90
23507;DHT22;11930;53.076;18.250;2024-02-16T12:14:54;13.40;99.90
23507;DHT22;11930;53.076;18.250;2024-02-16T12:17:20;13.30;99.90
23507;DHT22;11930;53.076;18.250;2024-02-16T12:19:47;13.40;99.90
23507;DHT22;11930;53.076;18.250;2024-02-16T12:22:17;13.40;99.90
23507;DHT22;11930;53.076;18.250;2024-02-16T12:24:45;13.40;99.90
23507;DHT22;11930;53.076;18.250;2024-02-16T12:27:12;13.50;99.90
23507;DHT22;11930;53.076;18.250;2024-02-16T12:29:39;13.60;99.90
23507;DHT22;11930;53.076;18.250;2024-02-16T12:32:06;13.60;99.90
23507;DHT22;11930;53.076;18.250;2024-02-16T12:34:32;13.70;99.90
23507;DHT22;11930;53.076;18.250;2024-02-16T12:36:59;13.80;99.90
23507;DHT22;11930;53.076;18.250;2024-02-16T12:39:25;13.90;99.90
23507;DHT22;11930;53.076;18.250;2024-02-16T12:41:51;13.90;99.90
23507;DHT22;11930;53.076;18.250;2024-02-16T12:44:18;13.90;99.90
23507;DHT22;11930;53.076;18.250;2024-02-16T12:46:44;13.90;99.90
23507;DHT22;11930;53.076;18.250;2024-02-16T12:49:10;13.90;99.90
23507;DHT22;11930;53.076;18.250;2024-02-16T12:51:36;13.90;99.90
23507;DHT22;11930;53.076;18.250;2024-02-16T12:54:03;13.90;99.90
23507;DHT22;11930;53.076;18.250;2024-02-16T12:56:32;13.90;99.90
23507;DHT22;11930;53.076;18.250;2024-02-16T12:58:58;13.90;99.90
23507;DHT22;11930;53.076;18.250;2024-02-16T13:01:26;13.90;99.90
23507;DHT22;11930;53.076;18.250;2024-02-16T13:03:52;13.90;99.90
23507;DHT22;11930;53.076;18.250;2024-02-16T13:06:18;13.80;99.90
23507;DHT22;11930;53.076;18.250;2024-02-16T13:08:45;13.80;99.90
23507;DHT22;11930;53.076;18.250;2024-02-16T13:11:11;13.80;99.90
23507;DHT22;11930;53.076;18.250;2024-02-16T13:13:38;13.80;99.90
23507;DHT22;11930;53.076;18.250;2024-02-16T13:16:04;13.90;99.90
23507;DHT22;11930;53.076;18.250;2024-02-16T13:18:31;13.90;99.90
23507;DHT22;11930;53.076;18.250;2024-02-16T13:20:57;13.90;99.90
23507;DHT22;11930;53.076;18.250;2024-02-16T13:23:24;13.90;99.90
23507;DHT22;11930;53.076;18.250;2024-02-16T13:25:50;13.90;99.90
23507;DHT22;11930;53.076;18.250;2024-02-16T13:28:16;13.90;99.90
23507;DHT22;11930;53.076;18.250;2024-02-16T13:30:56;13.90;99.90
23507;DHT22;11930;53.076;18.250;2024-02-16T13:33:24;13.90;99.90
23507;DHT22;11930;53.076;18.250;2024-02-16T13:35:52;13.90;99.90
23507;DHT22;11930;53.076;18.250;2024-02-16T13:38:18;13.90;99.90
23507;DHT22;11930;53.076;18.250;2024-02-16T13:40:44;13.90;99.90
23507;DHT22;11930;53.076;18.250;2024-02-16T13:43:11;13.90;99.90
23507;DHT22;11930;53.076;18.250;2024-02-16T13:45:48;13.90;99.90
23507;DHT22;11930;53.076;18.250;2024-02-16T13:48:16;13.90;99.90
23507;DHT22;11930;53.076;18.250;2024-02-16T13:50:46;13.90;99.90
23507;DHT22;11930;53.076;18.250;2024-02-16T13:53:14;13.80;99.90
23507;DHT22;11930;53.076;18.250;2024-02-16T13:55:42;13.70;99.90
23507;DHT22;11930;53.076;18.250;2024-02-16T13:58:10;13.70;99.90
23507;DHT22;11930;53.076;18.250;2024-02-16T14:00:37;13.60;99.90
23507;DHT22;11930;53.076;18.250;2024-02-16T14:03:06;13.60;99.90
23507;DHT22;11930;53.076;18.250;2024-02-16T14:05:38;13.50;99.90
23507;DHT22;11930;53.076;18.250;2024-02-16T14:08:05;13.50;99.90
23507;DHT22;11930;53.076;18.250;2024-02-16T14:10:32;13.50;99.90
23507;DHT22;11930;53.076;18.250;2024-02-16T14:12:58;13.50;99.90
23507;DHT22;11930;53.076;18.250;2024-02-16T14:15:25;13.60;99.90
23507;DHT22;11930;53.076;18.250;2024-02-16T14:17:51;13.60;99.90
23507;DHT22;11930;53.076;18.250;2024-02-16T14:20:17;13.60;99.90
23507;DHT22;11930;53.076;18.250;2024-02-16T14:22:44;13.60;99.90
23507;DHT22;11930;53.076;18.250;2024-02-16T14:25:11;13.60;99.90
23507;DHT22;11930;53.076;18.250;2024-02-16T14:27:39;13.60;99.90
23507;DHT22;11930;53.076;18.250;2024-02-16T14:30:07;13.70;99.90
23507;DHT22;11930;53.076;18.250;2024-02-16T14:32:34;13.60;99.90
23507;DHT22;11930;53.076;18.250;2024-02-16T14:35:00;13.60;99.90
23507;DHT22;11930;53.076;18.250;2024-02-16T14:37:27;13.60;99.90
23507;DHT22;11930;53.076;18.250;2024-02-16T14:39:56;13.60;99.90
23507;DHT22;11930;53.076;18.250;2024-02-16T14:42:24;13.50;99.90
23507;DHT22;11930;53.076;18.250;2024-02-16T14:44:50;13.50;99.90
23507;DHT22;11930;53.076;18.250;2024-02-16T14:47:17;13.40;99.90
23507;DHT22;11930;53.076;18.250;2024-02-16T14:49:44;13.40;99.90
23507;DHT22;11930;53.076;18.250;2024-02-16T14:52:10;13.30;99.90
23507;DHT22;11930;53.076;18.250;2024-02-16T14:54:37;13.30;99.90
23507;DHT22;11930;53.076;18.250;2024-02-16T14:57:03;13.20;99.90
23507;DHT22;11930;53.076;18.250;2024-02-16T14:59:29;13.20;99.90
23507;DHT22;11930;53.076;18.250;2024-02-16T15:01:56;13.20;99.90
23507;DHT22;11930;53.076;18.250;2024-02-16T15:04:22;13.10;99.90
23507;DHT22;11930;53.076;18.250;2024-02-16T15:06:49;13.10;99.90
23507;DHT22;11930;53.076;18.250;2024-02-16T15:09:15;13.10;99.90
23507;DHT22;11930;53.076;18.250;2024-02-16T15:11:41;13.00;99.90
23507;DHT22;11930;53.076;18.250;2024-02-16T15:14:07;13.00;99.90
23507;DHT22;11930;53.076;18.250;2024-02-16T15:16:33;12.90;99.90
23507;DHT22;11930;53.076;18.250;2024-02-16T15:18:59;12.90;99.90
23507;DHT22;11930;53.076;18.250;2024-02-16T15:21:26;12.90;99.90
23507;DHT22;11930;53.076;18.250;2024-02-16T15:23:53;12.90;99.90
23507;DHT22;11930;53.076;18.250;2024-02-16T15:26:19;12.90;99.90
23507;DHT22;11930;53.076;18.250;2024-02-16T15:28:45;12.80;99.90
23507;DHT22;11930;53.076;18.250;2024-02-16T15:31:12;12.70;99.90
23507;DHT22;11930;53.076;18.250;2024-02-16T15:33:38;12.60;99.90